Quarryville, Pennsylvania
Current Conditions -  °F | °C
As of 1:55 PM on Friday 21 Nov 2014 (Local Time) from KMQS Reporting Station
Clear Clear  
Wind Chill: 22°   Ceiling: Unl
Heat Index: 32°   Visibility: 10mi
Dew Point:   Wind: 15mph
Humidity: 38%   Direction: 310°NW
Pressure: 30.37"   Gusts: 20mph
Location:  39.9°N, 76.16°W
Report Text: KMQS 211855Z AUTO 31013G17KT 10SM CLR 00/M13 A3037 RMK AO2
Loading
Personal Weather Stations






























Interactive Weather Map New forecast layout! Learn more

10-Day Weather Forecast

Advertisements
Track Severe Weather on mobile